sensor_id;sensor_type;location;lat;lon;timestamp;pressure;altitude;pressure_sealevel;temperature;humidity
29239;BME280;16267;48.194;11.546;2023-04-20T00:01:47;95873.28;;;6.38;89.48
29239;BME280;16267;48.194;11.546;2023-04-20T00:04:16;95871.72;;;6.37;89.20
29239;BME280;16267;48.194;11.546;2023-04-20T00:06:42;95870.97;;;6.36;89.13
29239;BME280;16267;48.194;11.546;2023-04-20T00:09:13;95865.63;;;6.36;89.13
29239;BME280;16267;48.194;11.546;2023-04-20T00:11:40;95859.56;;;6.36;89.10
29239;BME280;16267;48.194;11.546;2023-04-20T00:14:06;95846.97;;;6.33;89.25
29239;BME280;16267;48.194;11.546;2023-04-20T00:16:32;95846.22;;;6.32;89.49
29239;BME280;16267;48.194;11.546;2023-04-20T00:19:01;95840.88;;;6.32;89.56
29239;BME280;16267;48.194;11.546;2023-04-20T00:21:27;95842.75;;;6.32;89.59
29239;BME280;16267;48.194;11.546;2023-04-20T00:23:52;95832.09;;;6.32;89.78
29239;BME280;16267;48.194;11.546;2023-04-20T00:26:18;95840.09;;;6.32;89.76
29239;BME280;16267;48.194;11.546;2023-04-20T00:28:45;95830.59;;;6.31;89.74
29239;BME280;16267;48.194;11.546;2023-04-20T00:31:11;95835.16;;;6.30;89.88
29239;BME280;16267;48.194;11.546;2023-04-20T00:33:37;95835.16;;;6.30;89.88
29239;BME280;16267;48.194;11.546;2023-04-20T00:36:03;95828.69;;;6.31;89.71
29239;BME280;16267;48.194;11.546;2023-04-20T00:38:28;95825.25;;;6.31;90.08
29239;BME280;16267;48.194;11.546;2023-04-20T00:40:54;95817.25;;;6.31;89.84
29239;BME280;16267;48.194;11.546;2023-04-20T00:43:21;95816.09;;;6.32;90.04
29239;BME280;16267;48.194;11.546;2023-04-20T00:45:47;95807.34;;;6.31;90.12
29239;BME280;16267;48.194;11.546;2023-04-20T00:48:13;95807.75;;;6.30;90.40
29239;BME280;16267;48.194;11.546;2023-04-20T00:50:39;95797.84;;;6.30;90.45
29239;BME280;16267;48.194;11.546;2023-04-20T00:53:07;95796.31;;;6.29;90.39
29239;BME280;16267;48.194;11.546;2023-04-20T00:55:33;95795.19;;;6.30;90.51
29239;BME280;16267;48.194;11.546;2023-04-20T00:58:01;95792.88;;;6.29;90.68
29239;BME280;16267;48.194;11.546;2023-04-20T01:00:27;95789.44;;;6.28;90.79
29239;BME280;16267;48.194;11.546;2023-04-20T01:02:53;95788.69;;;6.24;90.34
29239;BME280;16267;48.194;11.546;2023-04-20T01:05:19;95784.88;;;6.25;90.75
29239;BME280;16267;48.194;11.546;2023-04-20T01:07:45;95782.22;;;6.25;90.59
29239;BME280;16267;48.194;11.546;2023-04-20T01:10:11;95782.97;;;6.25;90.23
29239;BME280;16267;48.194;11.546;2023-04-20T01:12:37;95770.78;;;6.21;89.66
29239;BME280;16267;48.194;11.546;2023-04-20T01:15:04;95758.22;;;6.21;90.69
29239;BME280;16267;48.194;11.546;2023-04-20T01:17:31;95762.41;;;6.15;90.05
29239;BME280;16267;48.194;11.546;2023-04-20T01:19:58;95751.75;;;6.15;91.25
29239;BME280;16267;48.194;11.546;2023-04-20T01:22:24;95761.25;;;6.16;91.55
29239;BME280;16267;48.194;11.546;2023-04-20T01:24:50;95754.75;;;6.17;91.48
29239;BME280;16267;48.194;11.546;2023-04-20T01:27:16;95760.84;;;6.14;90.88
29239;BME280;16267;48.194;11.546;2023-04-20T01:29:43;95762.41;;;6.15;91.59
29239;BME280;16267;48.194;11.546;2023-04-20T01:32:09;95754.00;;;6.17;91.69
29239;BME280;16267;48.194;11.546;2023-04-20T01:34:35;95753.66;;;6.18;91.65
29239;BME280;16267;48.194;11.546;2023-04-20T01:37:01;95760.50;;;6.19;91.35
29239;BME280;16267;48.194;11.546;2023-04-20T01:39:37;95750.59;;;6.20;91.34
29239;BME280;16267;48.194;11.546;2023-04-20T01:42:04;95748.31;;;6.18;91.95
29239;BME280;16267;48.194;11.546;2023-04-20T01:44:30;95758.19;;;6.18;92.20
29239;BME280;16267;48.194;11.546;2023-04-20T01:46:56;95763.53;;;6.18;92.51
29239;BME280;16267;48.194;11.546;2023-04-20T01:49:22;95750.94;;;6.15;91.97
29239;BME280;16267;48.194;11.546;2023-04-20T01:51:48;95752.84;;;6.14;92.71
29239;BME280;16267;48.194;11.546;2023-04-20T01:54:14;95749.81;;;6.12;92.78
29239;BME280;16267;48.194;11.546;2023-04-20T01:56:40;95751.34;;;6.13;93.20
29239;BME280;16267;48.194;11.546;2023-04-20T01:59:06;95747.13;;;6.12;93.27
29239;BME280;16267;48.194;11.546;2023-04-20T02:01:31;95742.19;;;6.11;93.13
29239;BME280;16267;48.194;11.546;2023-04-20T02:03:57;95736.88;;;6.11;92.70
29239;BME280;16267;48.194;11.546;2023-04-20T02:06:23;95728.88;;;6.11;92.80
29239;BME280;16267;48.194;11.546;2023-04-20T02:08:49;95725.44;;;6.10;92.22
29239;BME280;16267;48.194;11.546;2023-04-20T02:11:14;95726.97;;;6.08;92.23
29239;BME280;16267;48.194;11.546;2023-04-20T02:13:40;95727.72;;;6.05;91.51
29239;BME280;16267;48.194;11.546;2023-04-20T02:16:06;95715.91;;;6.02;93.01
29239;BME280;16267;48.194;11.546;2023-04-20T02:18:32;95718.19;;;6.00;93.05
29239;BME280;16267;48.194;11.546;2023-04-20T02:20:59;95725.41;;;5.99;93.69
29239;BME280;16267;48.194;11.546;2023-04-20T02:23:25;95715.88;;;5.95;92.89
29239;BME280;16267;48.194;11.546;2023-04-20T02:25:51;95721.59;;;5.97;93.64
29239;BME280;16267;48.194;11.546;2023-04-20T02:28:17;95727.28;;;5.95;93.38
29239;BME280;16267;48.194;11.546;2023-04-20T02:30:43;95729.59;;;5.93;93.29
29239;BME280;16267;48.194;11.546;2023-04-20T02:33:09;95718.94;;;5.93;93.88
29239;BME280;16267;48.194;11.546;2023-04-20T02:35:34;95721.19;;;5.91;93.49
29239;BME280;16267;48.194;11.546;2023-04-20T02:38:00;95720.03;;;5.89;93.74
29239;BME280;16267;48.194;11.546;2023-04-20T02:40:26;95720.03;;;5.89;94.14
29239;BME280;16267;48.194;11.546;2023-04-20T02:42:52;95721.53;;;5.86;93.93
29239;BME280;16267;48.194;11.546;2023-04-20T02:45:18;95717.72;;;5.84;93.84
29239;BME280;16267;48.194;11.546;2023-04-20T02:47:43;95715.81;;;5.84;94.17
29239;BME280;16267;48.194;11.546;2023-04-20T02:55:12;95710.13;;;5.86;94.49
29239;BME280;16267;48.194;11.546;2023-04-20T02:57:38;95706.69;;;5.85;93.97
29239;BME280;16267;48.194;11.546;2023-04-20T03:00:08;95704.03;;;5.85;93.88
29239;BME280;16267;48.194;11.546;2023-04-20T03:02:35;95707.81;;;5.84;93.37
29239;BME280;16267;48.194;11.546;2023-04-20T03:05:04;95696.81;;;5.86;93.28
29239;BME280;16267;48.194;11.546;2023-04-20T03:07:30;95696.03;;;5.85;93.02
29239;BME280;16267;48.194;11.546;2023-04-20T03:09:57;95696.81;;;5.86;93.19
29239;BME280;16267;48.194;11.546;2023-04-20T03:12:50;95694.50;;;5.84;92.81
29239;BME280;16267;48.194;11.546;2023-04-20T03:33:53;95670.50;;;5.70;93.43
29239;BME280;16267;48.194;11.546;2023-04-20T03:36:19;95674.31;;;5.72;93.90
29239;BME280;16267;48.194;11.546;2023-04-20T03:38:45;95676.97;;;5.72;94.34
29239;BME280;16267;48.194;11.546;2023-04-20T03:41:10;95678.47;;;5.73;94.38
29239;BME280;16267;48.194;11.546;2023-04-20T03:43:36;95679.28;;;5.74;93.79
29239;BME280;16267;48.194;11.546;2023-04-20T03:46:02;95667.84;;;5.73;93.65
29239;BME280;16267;48.194;11.546;2023-04-20T03:48:28;95670.13;;;5.71;93.55
29239;BME280;16267;48.194;11.546;2023-04-20T03:50:53;95664.78;;;5.68;93.74
29239;BME280;16267;48.194;11.546;2023-04-20T03:53:19;95670.88;;;5.72;94.54
29239;BME280;16267;48.194;11.546;2023-04-20T03:55:45;95669.34;;;5.67;93.83
29239;BME280;16267;48.194;11.546;2023-04-20T03:58:11;95668.59;;;5.70;94.57
29239;BME280;16267;48.194;11.546;2023-04-20T04:00:37;95673.16;;;5.70;93.69
29239;BME280;16267;48.194;11.546;2023-04-20T04:03:02;95663.63;;;5.65;93.41
29239;BME280;16267;48.194;11.546;2023-04-20T04:05:28;95655.66;;;5.69;94.55
29239;BME280;16267;48.194;11.546;2023-04-20T04:07:54;95662.50;;;5.70;94.46
29239;BME280;16267;48.194;11.546;2023-04-20T04:10:20;95654.50;;;5.70;94.38
29239;BME280;16267;48.194;11.546;2023-04-20T04:12:46;95656.03;;;5.67;94.02
29239;BME280;16267;48.194;11.546;2023-04-20T04:15:12;95649.94;;;5.67;94.03
29239;BME280;16267;48.194;11.546;2023-04-20T04:17:38;95653.72;;;5.58;92.70
29239;BME280;16267;48.194;11.546;2023-04-20T04:20:05;95656.75;;;5.53;93.07
29239;BME280;16267;48.194;11.546;2023-04-20T04:22:33;95659.78;;;5.55;93.54
29239;BME280;16267;48.194;11.546;2023-04-20T04:24:59;95654.84;;;5.54;93.24
29239;BME280;16267;48.194;11.546;2023-04-20T04:27:25;95654.47;;;5.55;93.48
29239;BME280;16267;48.194;11.546;2023-04-20T04:29:54;95649.91;;;5.56;94.44
29239;BME280;16267;48.194;11.546;2023-04-20T04:32:22;95650.28;;;5.54;93.74
29239;BME280;16267;48.194;11.546;2023-04-20T04:34:49;95645.34;;;5.56;93.89
29239;BME280;16267;48.194;11.546;2023-04-20T04:37:22;95650.25;;;5.51;92.96
29239;BME280;16267;48.194;11.546;2023-04-20T04:39:49;95645.69;;;5.51;94.19
29239;BME280;16267;48.194;11.546;2023-04-20T04:42:15;95646.09;;;5.50;93.40
29239;BME280;16267;48.194;11.546;2023-04-20T04:44:41;95649.50;;;5.47;93.54
29239;BME280;16267;48.194;11.546;2023-04-20T04:47:07;95647.19;;;5.45;93.51
29239;BME280;16267;48.194;11.546;2023-04-20T04:49:34;95655.56;;;5.44;93.48
29239;BME280;16267;48.194;11.546;2023-04-20T04:52:02;95652.16;;;5.43;94.17
29239;BME280;16267;48.194;11.546;2023-04-20T04:54:28;95651.75;;;5.45;94.95
29239;BME280;16267;48.194;11.546;2023-04-20T04:56:54;95657.09;;;5.45;94.29
29239;BME280;16267;48.194;11.546;2023-04-20T04:59:20;95654.44;;;5.48;94.87
29239;BME280;16267;48.194;11.546;2023-04-20T05:01:45;95666.63;;;5.49;95.11
29239;BME280;16267;48.194;11.546;2023-04-20T05:04:11;95654.44;;;5.48;94.18
29239;BME280;16267;48.194;11.546;2023-04-20T05:06:37;95647.97;;;5.46;95.05
29239;BME280;16267;48.194;11.546;2023-04-20T05:09:03;95640.34;;;5.44;95.14
29239;BME280;16267;48.194;11.546;2023-04-20T05:11:29;95644.53;;;5.45;94.86
29239;BME280;16267;48.194;11.546;2023-04-20T05:13:56;95647.59;;;5.47;95.54
29239;BME280;16267;48.194;11.546;2023-04-20T05:16:22;95653.31;;;5.49;95.59
29239;BME280;16267;48.194;11.546;2023-04-20T05:18:47;95654.06;;;5.50;95.67
29239;BME280;16267;48.194;11.546;2023-04-20T05:21:13;95643.03;;;5.51;95.52
29239;BME280;16267;48.194;11.546;2023-04-20T05:23:39;95654.06;;;5.50;94.88
29239;BME280;16267;48.194;11.546;2023-04-20T05:26:05;95654.06;;;5.53;95.67
29239;BME280;16267;48.194;11.546;2023-04-20T05:28:33;95657.09;;;5.48;94.71
29239;BME280;16267;48.194;11.546;2023-04-20T05:30:59;95660.91;;;5.51;96.21
29239;BME280;16267;48.194;11.546;2023-04-20T05:33:25;95654.47;;;5.52;95.46
29239;BME280;16267;48.194;11.546;2023-04-20T05:35:58;95645.69;;;5.51;96.34
29239;BME280;16267;48.194;11.546;2023-04-20T05:38:24;95643.81;;;5.52;96.14
29239;BME280;16267;48.194;11.546;2023-04-20T05:40:50;95641.16;;;5.52;95.74
29239;BME280;16267;48.194;11.546;2023-04-20T05:43:16;95646.88;;;5.57;96.30
29239;BME280;16267;48.194;11.546;2023-04-20T05:45:47;95642.66;;;5.49;94.70
29239;BME280;16267;48.194;11.546;2023-04-20T05:48:13;95647.59;;;5.51;95.65
29239;BME280;16267;48.194;11.546;2023-04-20T05:50:39;95644.56;;;5.49;96.26
29239;BME280;16267;48.194;11.546;2023-04-20T05:53:05;95644.19;;;5.50;95.92
29239;BME280;16267;48.194;11.546;2023-04-20T05:55:31;95643.44;;;5.50;96.21
29239;BME280;16267;48.194;11.546;2023-04-20T05:57:56;95645.28;;;5.46;96.28
29239;BME280;16267;48.194;11.546;2023-04-20T06:00:22;95646.44;;;5.48;96.50
29239;BME280;16267;48.194;11.546;2023-04-20T06:02:48;95648.00;;;5.53;96.72
29239;BME280;16267;48.194;11.546;2023-04-20T06:05:14;95647.25;;;5.52;96.46
29239;BME280;16267;48.194;11.546;2023-04-20T06:07:40;95645.69;;;5.51;96.17
29239;BME280;16267;48.194;11.546;2023-04-20T06:10:06;95641.53;;;5.54;96.58
29239;BME280;16267;48.194;11.546;2023-04-20T06:12:33;95641.16;;;5.55;96.62
29239;BME280;16267;48.194;11.546;2023-04-20T06:15:00;95637.72;;;5.51;96.51
29239;BME280;16267;48.194;11.546;2023-04-20T06:17:25;95640.41;;;5.55;97.68
29239;BME280;16267;48.194;11.546;2023-04-20T06:19:51;95641.16;;;5.55;96.80
29239;BME280;16267;48.194;11.546;2023-04-20T06:22:18;95628.22;;;5.54;96.00
29239;BME280;16267;48.194;11.546;2023-04-20T06:24:44;95642.31;;;5.58;96.02
29239;BME280;16267;48.194;11.546;2023-04-20T06:27:10;95630.91;;;5.57;95.54
29239;BME280;16267;48.194;11.546;2023-04-20T06:29:36;95631.28;;;5.59;96.19
29239;BME280;16267;48.194;11.546;2023-04-20T06:32:03;95629.41;;;5.64;96.03
29239;BME280;16267;48.194;11.546;2023-04-20T06:34:29;95629.41;;;5.67;96.15
29239;BME280;16267;48.194;11.546;2023-04-20T06:36:55;95621.03;;;5.65;95.59
29239;BME280;16267;48.194;11.546;2023-04-20T06:39:21;95611.53;;;5.68;95.22
29239;BME280;16267;48.194;11.546;2023-04-20T06:41:47;95615.69;;;5.54;94.46
29239;BME280;16267;48.194;11.546;2023-04-20T06:44:12;95609.56;;;5.50;95.02
29239;BME280;16267;48.194;11.546;2023-04-20T06:46:38;95609.22;;;5.55;96.23
29239;BME280;16267;48.194;11.546;2023-04-20T06:49:04;95609.59;;;5.57;96.27
29239;BME280;16267;48.194;11.546;2023-04-20T06:51:31;95598.19;;;5.61;96.16
29239;BME280;16267;48.194;11.546;2023-04-20T06:53:57;95606.16;;;5.57;96.46
29239;BME280;16267;48.194;11.546;2023-04-20T06:56:23;95605.81;;;5.58;96.14
29239;BME280;16267;48.194;11.546;2023-04-20T06:58:49;95605.81;;;5.62;96.70
29239;BME280;16267;48.194;11.546;2023-04-20T07:01:14;95607.72;;;5.69;97.54
29239;BME280;16267;48.194;11.546;2023-04-20T07:03:40;95605.44;;;5.71;96.88
29239;BME280;16267;48.194;11.546;2023-04-20T07:06:06;95603.94;;;5.66;95.90
29239;BME280;16267;48.194;11.546;2023-04-20T07:08:35;95599.72;;;5.65;95.84
29239;BME280;16267;48.194;11.546;2023-04-20T07:11:00;95603.16;;;5.69;96.12
29239;BME280;16267;48.194;11.546;2023-04-20T07:13:29;95603.56;;;5.71;96.12
29239;BME280;16267;48.194;11.546;2023-04-20T07:15:54;95611.16;;;5.73;95.55
29239;BME280;16267;48.194;11.546;2023-04-20T07:18:20;95610.41;;;5.72;95.44
29239;BME280;16267;48.194;11.546;2023-04-20T07:20:46;95599.38;;;5.74;95.29
29239;BME280;16267;48.194;11.546;2023-04-20T07:23:11;95603.94;;;5.70;94.34
29239;BME280;16267;48.194;11.546;2023-04-20T07:25:37;95616.88;;;5.71;94.40
29239;BME280;16267;48.194;11.546;2023-04-20T07:28:03;95610.38;;;5.58;93.32
29239;BME280;16267;48.194;11.546;2023-04-20T07:30:29;95624.84;;;5.68;95.30
29239;BME280;16267;48.194;11.546;2023-04-20T07:32:56;95624.47;;;5.73;95.73
29239;BME280;16267;48.194;11.546;2023-04-20T07:35:22;95627.88;;;5.66;94.66
29239;BME280;16267;48.194;11.546;2023-04-20T07:37:48;95643.09;;;5.73;95.41
29239;BME280;16267;48.194;11.546;2023-04-20T07:40:13;95638.94;;;5.75;95.40
29239;BME280;16267;48.194;11.546;2023-04-20T07:42:41;95639.31;;;5.77;94.85
29239;BME280;16267;48.194;11.546;2023-04-20T07:45:09;95643.91;;;5.77;94.73
29239;BME280;16267;48.194;11.546;2023-04-20T07:47:35;95643.88;;;5.70;94.20
29239;BME280;16267;48.194;11.546;2023-04-20T07:50:06;95643.88;;;5.73;95.05
29239;BME280;16267;48.194;11.546;2023-04-20T07:52:32;95640.09;;;5.74;94.99
29239;BME280;16267;48.194;11.546;2023-04-20T07:54:58;95646.91;;;5.72;94.13
29239;BME280;16267;48.194;11.546;2023-04-20T07:57:25;95653.38;;;5.71;94.05
29239;BME280;16267;48.194;11.546;2023-04-20T07:59:51;95649.94;;;5.70;94.71
29239;BME280;16267;48.194;11.546;2023-04-20T08:02:17;95649.94;;;5.70;94.37
29239;BME280;16267;48.194;11.546;2023-04-20T08:04:43;95632.81;;;5.64;94.29
29239;BME280;16267;48.194;11.546;2023-04-20T08:07:10;95630.16;;;5.64;93.56
29239;BME280;16267;48.194;11.546;2023-04-20T08:09:36;95633.22;;;5.70;94.46
29239;BME280;16267;48.194;11.546;2023-04-20T08:12:01;95630.56;;;5.70;95.21
29239;BME280;16267;48.194;11.546;2023-04-20T08:14:27;95629.41;;;5.67;94.62
29239;BME280;16267;48.194;11.546;2023-04-20T08:16:53;95621.81;;;5.69;94.84
29239;BME280;16267;48.194;11.546;2023-04-20T08:19:19;95611.91;;;5.66;93.58
29239;BME280;16267;48.194;11.546;2023-04-20T08:21:45;95620.63;;;5.59;94.92
29239;BME280;16267;48.194;11.546;2023-04-20T08:24:10;95621.00;;;5.54;95.14
29239;BME280;16267;48.194;11.546;2023-04-20T08:26:38;95614.94;;;5.57;96.39
29239;BME280;16267;48.194;11.546;2023-04-20T08:29:04;95619.50;;;5.68;96.86
29239;BME280;16267;48.194;11.546;2023-04-20T08:31:31;95621.78;;;5.58;94.31
29239;BME280;16267;48.194;11.546;2023-04-20T08:33:57;95615.69;;;5.62;95.09
29239;BME280;16267;48.194;11.546;2023-04-20T08:36:22;95618.38;;;5.69;96.40
29239;BME280;16267;48.194;11.546;2023-04-20T08:39:08;95626.78;;;5.74;95.82
29239;BME280;16267;48.194;11.546;2023-04-20T08:41:35;95616.50;;;5.80;95.34
29239;BME280;16267;48.194;11.546;2023-04-20T08:44:01;95624.50;;;5.80;94.42
29239;BME280;16267;48.194;11.546;2023-04-20T08:46:27;95616.91;;;5.82;95.10
29239;BME280;16267;48.194;11.546;2023-04-20T08:48:53;95614.25;;;5.86;94.55
29239;BME280;16267;48.194;11.546;2023-04-20T08:51:23;95619.97;;;5.91;94.97
29239;BME280;16267;48.194;11.546;2023-04-20T08:53:50;95616.91;;;5.93;94.28
29239;BME280;16267;48.194;11.546;2023-04-20T08:56:15;95620.75;;;5.95;94.04
29239;BME280;16267;48.194;11.546;2023-04-20T08:58:41;95626.84;;;5.99;93.93
29239;BME280;16267;48.194;11.546;2023-04-20T09:01:10;95628.38;;;5.97;91.99
29239;BME280;16267;48.194;11.546;2023-04-20T09:03:39;95634.09;;;5.99;93.84
29239;BME280;16267;48.194;11.546;2023-04-20T09:06:16;95625.69;;;6.04;93.52
29239;BME280;16267;48.194;11.546;2023-04-20T09:08:43;95628.00;;;6.09;93.85
29239;BME280;16267;48.194;11.546;2023-04-20T09:11:28;95628.00;;;6.02;92.13
29239;BME280;16267;48.194;11.546;2023-04-20T09:14:03;95623.03;;;6.04;92.50
29239;BME280;16267;48.194;11.546;2023-04-20T09:16:37;95633.31;;;6.09;92.12
29239;BME280;16267;48.194;11.546;2023-04-20T09:19:04;95636.38;;;6.11;91.56
29239;BME280;16267;48.194;11.546;2023-04-20T09:21:30;95634.09;;;6.10;92.17
29239;BME280;16267;48.194;11.546;2023-04-20T09:24:04;95632.56;;;6.12;91.65
29239;BME280;16267;48.194;11.546;2023-04-20T09:26:35;95630.69;;;6.13;91.34
29239;BME280;16267;48.194;11.546;2023-04-20T09:29:02;95630.69;;;6.16;91.95
29239;BME280;16267;48.194;11.546;2023-04-20T09:31:28;95637.53;;;6.17;91.62
29239;BME280;16267;48.194;11.546;2023-04-20T09:34:02;95626.84;;;6.17;90.70
29239;BME280;16267;48.194;11.546;2023-04-20T09:36:42;95631.06;;;6.22;93.41
29239;BME280;16267;48.194;11.546;2023-04-20T09:39:16;95622.69;;;6.27;93.43
29239;BME280;16267;48.194;11.546;2023-04-20T09:41:43;95627.66;;;6.32;92.82
29239;BME280;16267;48.194;11.546;2023-04-20T09:44:10;95623.84;;;6.30;91.94
29239;BME280;16267;48.194;11.546;2023-04-20T09:46:39;95618.88;;;6.32;90.99
29239;BME280;16267;48.194;11.546;2023-04-20T09:49:07;95607.06;;;6.36;90.31
29239;BME280;16267;48.194;11.546;2023-04-20T09:51:36;95589.19;;;6.40;90.71
29239;BME280;16267;48.194;11.546;2023-04-20T09:54:05;95589.56;;;6.35;89.55
29239;BME280;16267;48.194;11.546;2023-04-20T09:56:32;95596.03;;;6.34;90.29
29239;BME280;16267;48.194;11.546;2023-04-20T09:59:00;95596.03;;;6.34;91.09
29239;BME280;16267;48.194;11.546;2023-04-20T10:01:37;95597.91;;;6.37;90.69
29239;BME280;16267;48.194;11.546;2023-04-20T10:04:07;95596.41;;;6.36;90.73
29239;BME280;16267;48.194;11.546;2023-04-20T10:06:39;95584.63;;;6.27;90.29
29239;BME280;16267;48.194;11.546;2023-04-20T10:09:22;95591.09;;;6.29;90.90
29239;BME280;16267;48.194;11.546;2023-04-20T10:11:51;95586.13;;;6.38;91.77
29239;BME280;16267;48.194;11.546;2023-04-20T10:14:24;95587.28;;;6.41;90.20
29239;BME280;16267;48.194;11.546;2023-04-20T10:17:07;95574.34;;;6.32;91.34
29239;BME280;16267;48.194;11.546;2023-04-20T10:19:41;95569.75;;;6.36;91.86
29239;BME280;16267;48.194;11.546;2023-04-20T10:22:10;95579.28;;;6.44;91.85
29239;BME280;16267;48.194;11.546;2023-04-20T10:24:36;95590.69;;;6.52;91.88
29239;BME280;16267;48.194;11.546;2023-04-20T10:27:19;95602.47;;;6.51;90.19
29239;BME280;16267;48.194;11.546;2023-04-20T10:29:45;95587.63;;;6.54;89.22
29239;BME280;16267;48.194;11.546;2023-04-20T10:34:47;95579.25;;;6.55;89.28
29239;BME280;16267;48.194;11.546;2023-04-20T10:37:13;95573.53;;;6.64;90.74
29239;BME280;16267;48.194;11.546;2023-04-20T10:39:46;95570.84;;;6.67;89.98
29239;BME280;16267;48.194;11.546;2023-04-20T10:42:12;95573.88;;;6.73;89.95
29239;BME280;16267;48.194;11.546;2023-04-20T10:44:52;95566.25;;;6.75;89.24
29239;BME280;16267;48.194;11.546;2023-04-20T10:47:30;95569.69;;;6.79;88.71
29239;BME280;16267;48.194;11.546;2023-04-20T10:50:09;95568.53;;;6.80;89.38
29239;BME280;16267;48.194;11.546;2023-04-20T10:52:37;95557.13;;;6.80;89.05
29239;BME280;16267;48.194;11.546;2023-04-20T10:55:05;95564.75;;;6.78;89.83
29239;BME280;16267;48.194;11.546;2023-04-20T10:57:32;95567.00;;;6.83;89.89
29239;BME280;16267;48.194;11.546;2023-04-20T10:59:59;95575.03;;;6.76;89.09
29239;BME280;16267;48.194;11.546;2023-04-20T11:02:25;95563.56;;;6.86;89.50
29239;BME280;16267;48.194;11.546;2023-04-20T11:04:52;95560.91;;;6.93;89.79
29239;BME280;16267;48.194;11.546;2023-04-20T11:07:20;95556.31;;;6.90;89.04
29239;BME280;16267;48.194;11.546;2023-04-20T11:09:53;95546.38;;;6.98;88.88
29239;BME280;16267;48.194;11.546;2023-04-20T11:12:20;95539.94;;;6.91;89.13
29239;BME280;16267;48.194;11.546;2023-04-20T11:14:56;95539.91;;;6.99;88.95
29239;BME280;16267;48.194;11.546;2023-04-20T11:17:35;95539.56;;;6.86;86.64
29239;BME280;16267;48.194;11.546;2023-04-20T11:20:10;95536.47;;;7.02;88.35
29239;BME280;16267;48.194;11.546;2023-04-20T11:22:40;95536.78;;;7.14;87.71
29239;BME280;16267;48.194;11.546;2023-04-20T11:25:08;95522.25;;;7.23;87.75
29239;BME280;16267;48.194;11.546;2023-04-20T11:27:37;95513.84;;;7.28;87.40
29239;BME280;16267;48.194;11.546;2023-04-20T11:30:04;95518.41;;;7.31;86.44
29239;BME280;16267;48.194;11.546;2023-04-20T11:32:31;95516.88;;;7.33;85.73
29239;BME280;16267;48.194;11.546;2023-04-20T11:35:03;95534.78;;;7.36;86.94
29239;BME280;16267;48.194;11.546;2023-04-20T11:37:44;95521.44;;;7.40;86.37
29239;BME280;16267;48.194;11.546;2023-04-20T11:40:11;95519.09;;;7.42;86.19
29239;BME280;16267;48.194;11.546;2023-04-20T11:42:37;95515.25;;;7.54;86.82
29239;BME280;16267;48.194;11.546;2023-04-20T11:45:04;95516.38;;;7.53;85.98
29239;BME280;16267;48.194;11.546;2023-04-20T11:47:31;95522.84;;;7.55;86.32
29239;BME280;16267;48.194;11.546;2023-04-20T11:49:56;95519.03;;;7.56;85.61
29239;BME280;16267;48.194;11.546;2023-04-20T11:52:22;95508.72;;;7.62;84.69
29239;BME280;16267;48.194;11.546;2023-04-20T11:54:48;95511.78;;;7.53;83.78
29239;BME280;16267;48.194;11.546;2023-04-20T11:57:14;95507.19;;;7.57;84.42
29239;BME280;16267;48.194;11.546;2023-04-20T11:59:40;95508.38;;;7.53;85.38
29239;BME280;16267;48.194;11.546;2023-04-20T12:02:08;95499.56;;;7.56;86.09
29239;BME280;16267;48.194;11.546;2023-04-20T12:04:34;95504.06;;;7.70;86.56
29239;BME280;16267;48.194;11.546;2023-04-20T12:07:00;95504.47;;;7.68;84.46
29239;BME280;16267;48.194;11.546;2023-04-20T12:09:27;95507.13;;;7.65;84.52
29239;BME280;16267;48.194;11.546;2023-04-20T12:11:54;95510.44;;;7.83;86.34
29239;BME280;16267;48.194;11.546;2023-04-20T12:14:20;95508.88;;;7.89;84.95
29239;BME280;16267;48.194;11.546;2023-04-20T12:16:46;95502.34;;;7.94;83.99
29239;BME280;16267;48.194;11.546;2023-04-20T12:19:12;95500.81;;;7.96;83.53
29239;BME280;16267;48.194;11.546;2023-04-20T12:21:38;95489.75;;;7.94;83.14
29239;BME280;16267;48.194;11.546;2023-04-20T12:24:04;95501.53;;;8.04;83.03
29239;BME280;16267;48.194;11.546;2023-04-20T12:26:29;95496.09;;;8.11;82.24
29239;BME280;16267;48.194;11.546;2023-04-20T12:28:56;95488.81;;;8.15;81.91
29239;BME280;16267;48.194;11.546;2023-04-20T12:31:22;95487.31;;;8.11;81.84
29239;BME280;16267;48.194;11.546;2023-04-20T12:33:49;95496.09;;;8.15;81.53
29239;BME280;16267;48.194;11.546;2023-04-20T12:36:15;95491.81;;;8.21;82.10
29239;BME280;16267;48.194;11.546;2023-04-20T12:38:40;95489.16;;;8.21;80.85
29239;BME280;16267;48.194;11.546;2023-04-20T12:41:06;95479.94;;;8.25;81.62
29239;BME280;16267;48.194;11.546;2023-04-20T12:43:32;95491.00;;;8.27;82.38
29239;BME280;16267;48.194;11.546;2023-04-20T12:45:58;95479.53;;;8.27;81.14
29239;BME280;16267;48.194;11.546;2023-04-20T12:48:23;95475.69;;;8.28;81.26
29239;BME280;16267;48.194;11.546;2023-04-20T12:50:49;95473.44;;;8.26;81.35
29239;BME280;16267;48.194;11.546;2023-04-20T12:53:15;95473.81;;;8.25;80.94
29239;BME280;16267;48.194;11.546;2023-04-20T12:55:41;95468.56;;;8.18;80.91
29239;BME280;16267;48.194;11.546;2023-04-20T12:58:07;95472.38;;;8.17;82.51
29239;BME280;16267;48.194;11.546;2023-04-20T13:00:32;95477.72;;;8.20;82.83
29239;BME280;16267;48.194;11.546;2023-04-20T13:02:58;95479.59;;;8.20;82.41
29239;BME280;16267;48.194;11.546;2023-04-20T13:05:24;95494.94;;;8.16;82.17
29239;BME280;16267;48.194;11.546;2023-04-20T13:07:50;95490.38;;;8.09;82.67
29239;BME280;16267;48.194;11.546;2023-04-20T13:10:16;95488.81;;;8.15;83.58
29239;BME280;16267;48.194;11.546;2023-04-20T13:12:42;95481.94;;;8.18;83.93
29239;BME280;16267;48.194;11.546;2023-04-20T13:15:08;95477.28;;;8.22;83.91
29239;BME280;16267;48.194;11.546;2023-04-20T13:17:34;95479.28;;;8.14;83.02
29239;BME280;16267;48.194;11.546;2023-04-20T13:20:01;95481.28;;;8.07;83.97
29239;BME280;16267;48.194;11.546;2023-04-20T13:22:27;95473.59;;;8.09;83.58
29239;BME280;16267;48.194;11.546;2023-04-20T13:24:52;95469.69;;;8.17;84.21
29239;BME280;16267;48.194;11.546;2023-04-20T13:27:18;95465.88;;;8.18;84.04